Time;durP1;ratioP1;P1;durP2;ratioP2;P2;SDS_P1;SDS_P2;PMS_P1;PMS_P2;Temp;Humidity;BMP_temperature;BMP_pressure;BME280_temperature;BME280_humidity;BME280_pressure;Samples;Min_cycle;Max_cycle;Signal;HPM_P1;HPM_P2
2022/12/31 00:00:27;;;;;;;2.83;1.95;;;13.50;98.50;;;;;;5133398;28;20024;-73
2022/12/31 00:02:53;;;;;;;4.88;2.00;;;13.50;98.40;;;;;;5116341;28;20019;-72
2022/12/31 00:05:19;;;;;;;2.58;1.75;;;13.60;98.40;;;;;;5133314;28;20032;-73
2022/12/31 00:07:44;;;;;;;4.40;1.90;;;13.50;98.50;;;;;;5133170;28;20031;-72
2022/12/31 00:10:10;;;;;;;2.70;1.65;;;13.50;98.70;;;;;;5116247;28;20042;-72
2022/12/31 00:12:36;;;;;;;2.55;1.55;;;13.50;98.90;;;;;;5134216;28;20032;-73
2022/12/31 00:15:01;;;;;;;1.83;1.30;;;13.50;99.00;;;;;;5134155;28;20027;-72
2022/12/31 00:17:27;;;;;;;2.42;1.63;;;13.50;99.10;;;;;;5134063;28;20059;-72
2022/12/31 00:19:53;;;;;;;2.25;1.70;;;13.50;99.00;;;;;;5116093;28;20019;-72
2022/12/31 00:22:19;;;;;;;2.17;1.55;;;13.50;98.90;;;;;;5116013;28;20125;-72
2022/12/31 00:24:45;;;;;;;2.60;1.40;;;13.60;98.90;;;;;;5133264;28;20426;-72
2022/12/31 00:27:10;;;;;;;1.95;1.52;;;13.60;99.00;;;;;;5134034;28;20031;-72
2022/12/31 00:29:36;;;;;;;2.15;1.17;;;13.60;99.00;;;;;;5116078;28;20103;-72
2022/12/31 00:32:01;;;;;;;2.80;1.70;;;13.60;99.00;;;;;;5132962;28;20032;-72
2022/12/31 00:34:27;;;;;;;2.05;0.82;;;13.60;99.10;;;;;;5134071;28;20032;-72
2022/12/31 00:36:53;;;;;;;2.22;1.50;;;13.60;99.20;;;;;;5133870;28;20105;-73
2022/12/31 00:39:18;;;;;;;2.35;1.50;;;13.60;99.40;;;;;;5132901;28;20049;-73
2022/12/31 00:41:44;;;;;;;2.05;1.73;;;13.60;99.40;;;;;;5099061;28;20028;-73
2022/12/31 00:44:13;;;;;;;3.45;1.50;;;13.70;99.40;;;;;;5133988;28;20031;-72
2022/12/31 00:46:38;;;;;;;2.63;1.80;;;13.60;99.40;;;;;;5115820;28;20027;-73
2022/12/31 00:49:05;;;;;;;4.07;2.05;;;13.70;99.50;;;;;;5115858;28;20049;-72
2022/12/31 00:51:30;;;;;;;2.22;1.63;;;13.70;99.60;;;;;;5133800;28;20028;-72
2022/12/31 00:53:56;;;;;;;2.08;1.63;;;13.70;99.60;;;;;;5133902;28;20043;-72
2022/12/31 00:56:25;;;;;;;5.35;1.92;;;13.70;99.70;;;;;;5132749;28;20047;-73
2022/12/31 00:58:51;;;;;;;2.03;1.63;;;13.70;99.80;;;;;;5133686;28;20024;-73
2022/12/31 01:01:20;;;;;;;5.18;2.30;;;13.70;99.80;;;;;;5136234;28;20020;-73
2022/12/31 01:03:48;;;;;;;2.80;1.85;;;13.70;99.70;;;;;;5137790;28;20402;-72
2022/12/31 01:06:13;;;;;;;3.30;2.13;;;13.70;99.60;;;;;;5136819;28;20046;-73
2022/12/31 01:08:39;;;;;;;3.13;2.08;;;13.80;99.60;;;;;;5136613;28;20024;-73
2022/12/31 01:11:18;;;;;;;3.80;2.05;;;13.80;99.50;;;;;;5137619;28;20045;-73
2022/12/31 01:13:49;;;;;;;3.60;2.20;;;13.80;99.60;;;;;;5137658;28;20020;-73
2022/12/31 01:16:15;;;;;;;3.30;2.17;;;13.80;99.50;;;;;;5137508;28;20015;-73
2022/12/31 01:18:41;;;;;;;3.80;2.50;;;13.80;99.60;;;;;;5136482;28;20024;-73
2022/12/31 01:21:09;;;;;;;2.35;1.90;;;13.80;99.60;;;;;;5119438;28;20047;-73
2022/12/31 01:23:35;;;;;;;2.70;1.80;;;13.70;99.60;;;;;;5136369;28;20044;-73
2022/12/31 01:26:02;;;;;;;1.15;1.05;;;13.70;99.60;;;;;;5136372;28;20043;-73
2022/12/31 01:28:28;;;;;;;1.45;1.15;;;13.70;99.40;;;;;;5136304;28;20015;-73
2022/12/31 01:30:54;;;;;;;4.72;1.20;;;13.70;99.30;;;;;;5136390;28;20023;-73
2022/12/31 01:33:20;;;;;;;1.23;1.10;;;13.70;99.20;;;;;;5137242;28;20050;-73
2022/12/31 01:35:46;;;;;;;1.55;0.80;;;13.70;99.20;;;;;;5136131;28;20024;-72
2022/12/31 01:38:11;;;;;;;0.90;0.68;;;13.70;99.10;;;;;;5137191;28;20050;-73
2022/12/31 01:40:38;;;;;;;2.00;0.68;;;13.70;99.00;;;;;;5137221;28;20084;-73
2022/12/31 01:43:17;;;;;;;1.85;0.70;;;13.70;99.00;;;;;;5137068;28;20027;-73
2022/12/31 01:45:52;;;;;;;0.70;0.40;;;13.70;98.90;;;;;;5137124;28;20035;-73
2022/12/31 01:48:25;;;;;;;0.75;0.40;;;13.70;99.00;;;;;;5137019;28;20029;-73
2022/12/31 01:50:51;;;;;;;;;;;13.60;99.00;;;;;;5136508;28;20040;-73
2022/12/31 01:53:17;;;;;;;0.60;0.38;;;13.60;99.10;;;;;;5135981;28;19923;-72
2022/12/31 01:55:58;;;;;;;0.50;0.40;;;13.60;99.40;;;;;;5136855;27;20038;-73
2022/12/31 01:58:33;;;;;;;0.40;0.40;;;13.50;99.60;;;;;;5136824;28;20023;-73
2022/12/31 02:00:59;;;;;;;2.05;0.40;;;13.50;99.80;;;;;;5136761;28;20051;-72
2022/12/31 02:03:27;;;;;;;2.22;0.60;;;13.50;99.90;;;;;;5135807;28;20057;-73
2022/12/31 02:06:06;;;;;;;0.57;0.50;;;13.50;99.90;;;;;;5135597;28;20019;-73
2022/12/31 02:08:32;;;;;;;0.30;0.30;;;13.60;99.70;;;;;;5136533;28;20110;-73
2022/12/31 02:10:58;;;;;;;0.22;0.22;;;13.50;99.60;;;;;;5118736;28;20024;-73
2022/12/31 02:13:24;;;;;;;1.65;0.52;;;13.50;99.60;;;;;;5134401;28;20058;-72
2022/12/31 02:16:33;;;;;;;0.22;0.20;;;13.50;99.60;;;;;;5118365;28;20032;-73
2022/12/31 02:19:13;;;;;;;0.30;0.25;;;13.50;99.70;;;;;;5117340;28;20036;-73
2022/12/31 02:21:53;;;;;;;2.63;0.40;;;13.50;99.70;;;;;;5136171;28;20023;-73
2022/12/31 02:24:47;;;;;;;0.50;0.50;;;13.50;99.70;;;;;;5136308;28;20027;-73
2022/12/31 02:27:19;;;;;;;1.27;0.70;;;13.60;99.50;;;;;;5135332;28;20052;-73
2022/12/31 02:30:37;;;;;;;1.00;0.40;;;13.60;99.30;;;;;;5136154;28;20045;-73
2022/12/31 02:33:25;;;;;;;0.50;0.40;;;13.60;99.00;;;;;;5090867;28;20092;-72
2022/12/31 02:36:05;;;;;;;0.28;0.20;;;13.60;98.80;;;;;;5136152;28;20051;-72
2022/12/31 02:38:39;;;;;;;0.47;0.40;;;13.60;98.70;;;;;;5135152;28;20030;-73
2022/12/31 02:41:10;;;;;;;0.25;0.20;;;13.60;98.50;;;;;;5134959;28;20087;-72
2022/12/31 02:43:44;;;;;;;0.95;0.40;;;13.60;98.40;;;;;;5135972;28;20028;-73
2022/12/31 02:46:22;;;;;;;0.40;0.35;;;13.60;98.40;;;;;;5119028;28;20028;-72
2022/12/31 02:49:19;;;;;;;1.35;0.40;;;13.60;98.30;;;;;;5135839;28;20020;-73
2022/12/31 02:51:55;;;;;;;0.63;0.38;;;13.60;98.20;;;;;;5131604;28;20027;-73
2022/12/31 02:54:30;;;;;;;0.70;0.35;;;13.50;98.10;;;;;;5135711;28;20015;-73
2022/12/31 02:57:06;;;;;;;0.30;0.20;;;13.50;97.90;;;;;;5134537;28;20028;-73
2022/12/31 03:02:34;;;;;;;0.40;0.40;;;13.50;97.90;;;;;;5135707;28;20065;-72
2022/12/31 03:05:01;;;;;;;0.30;0.20;;;13.40;97.80;;;;;;5134531;28;20050;-73
2022/12/31 03:07:30;;;;;;;0.52;0.32;;;13.40;97.70;;;;;;5135399;27;20028;-72
2022/12/31 03:09:56;;;;;;;0.90;0.30;;;13.40;97.80;;;;;;5135306;28;20043;-73
2022/12/31 03:15:19;;;;;;;1.20;0.70;;;13.30;98.00;;;;;;5135308;28;20063;-73
2022/12/31 03:18:11;;;;;;;0.65;0.63;;;13.30;98.10;;;;;;5135317;28;20105;-72
2022/12/31 03:23:49;;;;;;;0.90;0.80;;;13.40;98.10;;;;;;5134823;28;20042;-72
2022/12/31 03:26:14;;;;;;;1.35;0.90;;;13.40;98.00;;;;;;5112374;28;20032;-73
2022/12/31 03:28:46;;;;;;;2.50;0.90;;;13.40;98.00;;;;;;5112878;28;20036;-73
2022/12/31 03:31:12;;;;;;;1.83;1.00;;;13.50;98.00;;;;;;5096410;28;20032;-72
2022/12/31 03:33:40;;;;;;;1.25;1.08;;;13.40;98.00;;;;;;5079035;28;20059;-73
2022/12/31 03:36:10;;;;;;;2.15;1.40;;;13.50;98.10;;;;;;5095582;28;20174;-72
2022/12/31 03:38:35;;;;;;;2.35;1.35;;;13.50;98.30;;;;;;5112683;28;20095;-73
2022/12/31 03:41:01;;;;;;;2.92;1.25;;;13.50;98.50;;;;;;5078931;28;20040;-73
2022/12/31 03:43:27;;;;;;;1.73;1.13;;;13.40;98.60;;;;;;5112608;28;20028;-73
2022/12/31 03:45:53;;;;;;;2.22;1.27;;;13.40;99.00;;;;;;5078845;28;20568;-72
2022/12/31 03:48:22;;;;;;;2.22;1.23;;;13.40;99.10;;;;;;5078911;28;20028;-73
2022/12/31 03:50:48;;;;;;;1.95;1.15;;;13.40;99.20;;;;;;5112351;28;20028;-73
2022/12/31 03:53:14;;;;;;;5.45;1.10;;;13.40;99.40;;;;;;5112431;28;20031;-72
2022/12/31 03:55:40;;;;;;;1.70;0.88;;;13.40;99.60;;;;;;5112302;28;20044;-73
2022/12/31 03:58:06;;;;;;;1.55;1.02;;;13.30;99.60;;;;;;5131770;28;20065;-73
2022/12/31 04:00:32;;;;;;;1.70;1.00;;;13.30;99.70;;;;;;5116439;28;20424;-73
2022/12/31 04:02:57;;;;;;;2.58;1.10;;;13.30;99.80;;;;;;5134362;28;20028;-73
2022/12/31 04:05:23;;;;;;;2.03;1.05;;;13.30;99.90;;;;;;5116458;28;20019;-73
2022/12/31 04:07:50;;;;;;;1.75;1.02;;;13.30;99.90;;;;;;5134218;28;20482;-73
2022/12/31 04:10:17;;;;;;;1.48;0.80;;;13.30;99.90;;;;;;5134294;28;20028;-72
2022/12/31 04:12:43;;;;;;;1.75;0.85;;;13.30;99.90;;;;;;5116248;28;20035;-72
2022/12/31 04:15:18;;;;;;;1.23;0.80;;;13.30;99.90;;;;;;5134217;28;20079;-73
2022/12/31 04:17:43;;;;;;;1.13;0.73;;;13.30;99.90;;;;;;5134162;28;20032;-73
2022/12/31 04:20:09;;;;;;;1.38;1.10;;;13.30;99.90;;;;;;5133110;28;20027;-73
2022/12/31 04:22:35;;;;;;;1.27;0.82;;;13.40;99.90;;;;;;5132891;28;20055;-73
2022/12/31 04:25:01;;;;;;;3.45;0.90;;;13.40;99.90;;;;;;5133092;28;20020;-72
2022/12/31 04:27:26;;;;;;;1.05;0.70;;;13.50;99.70;;;;;;5116030;28;20050;-73
2022/12/31 04:29:52;;;;;;;0.93;0.70;;;13.50;99.50;;;;;;5133013;28;20099;-73
2022/12/31 04:32:18;;;;;;;0.90;0.57;;;13.50;99.40;;;;;;5133057;28;20020;-72
2022/12/31 04:34:43;;;;;;;3.45;0.88;;;13.50;99.30;;;;;;5133472;28;20032;-73
2022/12/31 04:37:09;;;;;;;0.88;0.68;;;13.60;99.20;;;;;;5098938;28;20028;-73
2022/12/31 04:39:34;;;;;;;1.30;0.88;;;13.60;99.10;;;;;;5132991;28;20031;-73
2022/12/31 04:42:00;;;;;;;1.85;0.85;;;13.60;99.00;;;;;;5116021;28;20041;-73
2022/12/31 04:44:25;;;;;;;1.27;0.85;;;13.60;98.90;;;;;;5133868;28;20654;-73
2022/12/31 04:46:51;;;;;;;2.72;0.70;;;13.60;98.80;;;;;;5115861;28;20028;-73
2022/12/31 04:49:17;;;;;;;1.38;0.70;;;13.60;98.70;;;;;;5115916;28;20035;-73
2022/12/31 04:51:42;;;;;;;0.80;0.50;;;13.60;98.50;;;;;;5132962;28;20034;-73
2022/12/31 04:54:08;;;;;;;1.05;0.70;;;13.60;98.40;;;;;;5133777;28;20036;-73
2022/12/31 04:56:35;;;;;;;1.38;0.90;;;13.60;98.30;;;;;;5115721;28;20087;-72
2022/12/31 04:59:01;;;;;;;1.35;0.80;;;13.60;98.30;;;;;;5132708;28;20020;-73
2022/12/31 05:01:27;;;;;;;2.53;0.77;;;13.60;98.20;;;;;;5133739;28;20050;-73
2022/12/31 05:03:52;;;;;;;2.10;0.90;;;13.60;98.10;;;;;;5132764;28;20028;-73
2022/12/31 05:06:20;;;;;;;1.50;1.10;;;13.60;98.10;;;;;;5115770;28;20032;-72
2022/12/31 05:08:46;;;;;;;1.77;0.80;;;13.60;97.90;;;;;;5133608;28;20020;-73
2022/12/31 05:11:12;;;;;;;1.60;0.80;;;13.50;97.90;;;;;;5133677;28;20051;-73
2022/12/31 05:13:38;;;;;;;1.17;0.75;;;13.50;97.90;;;;;;5133606;28;20043;-73
2022/12/31 05:16:05;;;;;;;1.15;0.90;;;13.50;98.30;;;;;;5132611;28;20020;-73
2022/12/31 05:18:31;;;;;;;1.33;0.82;;;13.50;97.90;;;;;;5132521;28;20057;-73
2022/12/31 05:20:57;;;;;;;0.95;0.70;;;13.50;97.80;;;;;;5133574;28;20032;-73
2022/12/31 05:23:23;;;;;;;1.30;0.70;;;13.50;97.80;;;;;;5132478;28;20087;-73
2022/12/31 05:25:49;;;;;;;1.08;0.80;;;13.50;97.60;;;;;;5133535;28;20027;-73
2022/12/31 05:28:15;;;;;;;1.80;1.00;;;13.40;97.70;;;;;;5132574;28;20036;-73
2022/12/31 05:30:42;;;;;;;2.22;1.15;;;13.40;98.40;;;;;;5115474;28;20027;-73
2022/12/31 05:33:07;;;;;;;1.48;0.85;;;13.50;99.00;;;;;;5133449;28;20028;-73
2022/12/31 05:35:33;;;;;;;2.42;1.30;;;13.50;99.20;;;;;;5132528;28;20092;-73
2022/12/31 05:37:59;;;;;;;2.47;0.95;;;13.60;99.20;;;;;;5132278;28;20032;-73
2022/12/31 05:40:26;;;;;;;1.88;0.75;;;13.70;99.20;;;;;;5132384;28;20023;-73
2022/12/31 05:42:51;;;;;;;2.55;0.73;;;13.70;99.30;;;;;;5132509;28;20035;-73
2022/12/31 05:45:17;;;;;;;1.52;0.77;;;13.80;99.10;;;;;;5132322;28;20122;-73
2022/12/31 05:47:43;;;;;;;2.72;1.02;;;13.80;99.20;;;;;;5116705;28;20019;-73
2022/12/31 05:50:11;;;;;;;2.65;1.00;;;13.80;99.20;;;;;;5136979;28;20027;-73
2022/12/31 05:52:37;;;;;;;4.38;0.95;;;13.80;99.20;;;;;;5135990;28;20031;-73
2022/12/31 05:55:04;;;;;;;1.08;0.75;;;13.80;99.20;;;;;;5135900;28;20038;-73
2022/12/31 05:57:30;;;;;;;2.17;0.85;;;13.80;99.00;;;;;;5135860;28;20097;-72
2022/12/31 05:59:55;;;;;;;2.30;1.10;;;13.80;99.10;;;;;;5135870;28;20027;-73
2022/12/31 06:02:22;;;;;;;3.13;1.20;;;13.80;99.20;;;;;;5101910;28;20024;-73
2022/12/31 06:04:47;;;;;;;1.85;0.88;;;13.80;99.20;;;;;;5136673;28;20079;-73
2022/12/31 06:07:13;;;;;;;2.95;0.98;;;13.80;99.30;;;;;;5135652;28;20479;-73
2022/12/31 06:09:39;;;;;;;4.22;1.00;;;13.90;99.50;;;;;;5136484;28;20045;-73
2022/12/31 06:12:05;;;;;;;3.22;0.82;;;13.90;99.90;;;;;;5135808;28;20038;-72
2022/12/31 06:14:31;;;;;;;0.98;0.70;;;13.90;99.90;;;;;;5136513;28;20056;-73
2022/12/31 06:16:57;;;;;;;1.60;0.80;;;13.90;99.90;;;;;;5118258;28;20042;-73
2022/12/31 06:19:22;;;;;;;2.38;0.90;;;14.00;99.90;;;;;;5101489;28;20024;-73
2022/12/31 06:21:48;;;;;;;1.73;0.75;;;14.00;99.90;;;;;;5136152;28;20050;-72
2022/12/31 06:24:14;;;;;;;1.92;0.90;;;14.10;99.90;;;;;;5135628;28;20028;-73
2022/12/31 06:26:39;;;;;;;0.70;0.52;;;14.10;99.70;;;;;;5136238;28;20050;-74
2022/12/31 06:29:05;;;;;;;3.45;1.25;;;14.10;99.60;;;;;;5135319;28;20019;-74
2022/12/31 06:31:31;;;;;;;2.10;1.10;;;14.10;99.50;;;;;;5135187;28;20433;-74
2022/12/31 06:33:56;;;;;;;1.98;1.02;;;14.10;99.40;;;;;;5118124;28;20068;-74
2022/12/31 06:36:22;;;;;;;1.88;0.73;;;14.10;99.40;;;;;;5135043;28;20095;-74
2022/12/31 06:38:48;;;;;;;1.00;0.70;;;14.10;99.60;;;;;;5135068;28;20044;-73
2022/12/31 06:41:15;;;;;;;6.90;1.23;;;14.10;99.90;;;;;;5134995;28;20019;-74
2022/12/31 06:43:41;;;;;;;1.90;0.85;;;14.10;99.90;;;;;;5135029;28;20436;-73
2022/12/31 06:46:10;;;;;;;1.92;0.63;;;14.20;99.90;;;;;;5135850;28;20045;-74
2022/12/31 06:48:36;;;;;;;3.47;0.70;;;14.30;99.90;;;;;;5135812;28;20043;-74
2022/12/31 06:51:07;;;;;;;4.03;1.00;;;14.30;99.80;;;;;;5135709;28;20055;-73
2022/12/31 06:53:33;;;;;;;3.58;1.13;;;14.30;99.80;;;;;;5134861;28;20032;-73
2022/12/31 06:56:08;;;;;;;1.58;0.60;;;14.40;99.60;;;;;;5117783;28;20024;-74
2022/12/31 06:58:34;;;;;;;1.63;0.88;;;14.40;99.40;;;;;;5134237;28;20061;-73
2022/12/31 07:01:37;;;;;;;1.75;0.68;;;14.40;99.20;;;;;;5135573;28;20031;-74
2022/12/31 07:04:12;;;;;;;;;;;14.50;98.70;;;;;;5135882;28;20030;-73
2022/12/31 07:07:03;;;;;;;0.65;0.30;;;14.60;97.90;;;;;;5135455;28;19904;-73
2022/12/31 07:09:53;;;;;;;0.70;0.30;;;14.70;97.70;;;;;;5096869;28;20064;-73
2022/12/31 07:12:46;;;;;;;0.85;0.20;;;14.80;97.40;;;;;;5134362;28;20031;-74
2022/12/31 07:15:39;;;;;;;1.70;0.20;;;14.90;96.50;;;;;;5135310;28;20036;-74
2022/12/31 07:18:14;;;;;;;;;;;15.10;96.10;;;;;;5135625;28;20024;-74
2022/12/31 07:20:40;;;;;;;0.38;0.22;;;15.10;95.80;;;;;;5135304;28;19903;-73
2022/12/31 07:23:07;;;;;;;1.10;0.35;;;15.20;95.30;;;;;;5133990;28;20039;-74
2022/12/31 07:25:34;;;;;;;2.85;0.30;;;15.30;94.90;;;;;;5135073;28;20019;-73
2022/12/31 07:28:24;;;;;;;0.40;0.40;;;15.40;94.70;;;;;;5134024;28;20034;-74
2022/12/31 07:31:27;;;;;;;2.67;0.38;;;15.40;94.40;;;;;;5133945;28;20023;-73
2022/12/31 07:34:07;;;;;;;3.00;0.50;;;15.50;94.30;;;;;;5089691;28;20035;-74
2022/12/31 07:37:09;;;;;;;1.40;0.50;;;15.50;94.00;;;;;;5134833;28;20027;-74
2022/12/31 07:40:15;;;;;;;0.50;0.20;;;15.60;93.90;;;;;;5135031;28;20016;-73
2022/12/31 07:43:01;;;;;;;1.80;0.30;;;15.60;93.60;;;;;;5062125;28;20041;-74
2022/12/31 07:45:34;;;;;;;3.00;0.60;;;15.70;93.30;;;;;;5133678;28;20062;-75
2022/12/31 07:48:00;;;;;;;1.67;0.60;;;15.80;93.10;;;;;;5133720;28;20047;-73
2022/12/31 07:50:25;;;;;;;2.08;0.60;;;15.70;93.10;;;;;;5116552;28;20116;-74
2022/12/31 07:52:51;;;;;;;1.25;0.30;;;15.80;92.90;;;;;;5133512;28;20024;-74
2022/12/31 07:55:17;;;;;;;1.20;0.30;;;15.80;92.60;;;;;;5133567;28;20039;-74
2022/12/31 07:57:56;;;;;;;2.42;0.30;;;15.90;92.20;;;;;;5116386;28;20024;-74
2022/12/31 08:00:22;;;;;;;1.75;0.50;;;15.90;92.40;;;;;;5134516;28;20026;-74
2022/12/31 08:03:19;;;;;;;1.75;0.57;;;15.90;92.30;;;;;;5116387;28;20039;-74
2022/12/31 08:05:58;;;;;;;0.38;0.30;;;15.90;92.10;;;;;;5133381;28;20023;-73
2022/12/31 08:08:32;;;;;;;1.25;0.47;;;16.00;92.20;;;;;;5134292;28;20024;-73
2022/12/31 08:11:06;;;;;;;1.10;0.57;;;15.90;93.00;;;;;;5132494;28;20052;-74
2022/12/31 08:13:32;;;;;;;0.50;0.10;;;15.80;93.60;;;;;;5134440;28;20031;-74
2022/12/31 08:16:00;;;;;;;1.20;0.40;;;15.70;93.70;;;;;;5133159;28;20038;-74
2022/12/31 08:18:26;;;;;;;2.10;0.30;;;15.60;93.70;;;;;;5133079;28;20024;-74
2022/12/31 08:21:18;;;;;;;0.28;0.25;;;15.70;93.50;;;;;;5116277;28;20031;-74
2022/12/31 08:24:34;;;;;;;1.50;0.68;;;15.70;93.50;;;;;;5094402;28;20039;-75
2022/12/31 08:27:07;;;;;;;0.82;0.63;;;15.70;93.30;;;;;;5096549;28;20044;-75
2022/12/31 08:29:59;;;;;;;0.63;0.40;;;15.70;93.40;;;;;;5133103;28;20023;-74
2022/12/31 08:32:41;;;;;;;2.45;0.45;;;15.60;93.70;;;;;;5133005;28;20057;-74
2022/12/31 08:35:17;;;;;;;;;;;15.60;93.80;;;;;;5134461;28;20048;-74
2022/12/31 08:37:53;;;;;;;1.02;0.30;;;15.70;93.60;;;;;;5133937;28;19908;-74
2022/12/31 08:40:44;;;;;;;1.15;0.40;;;15.60;93.70;;;;;;5133984;28;20020;-74
2022/12/31 08:43:40;;;;;;;1.25;0.45;;;15.60;93.50;;;;;;5133960;28;20023;-74
2022/12/31 08:46:18;;;;;;;0.60;0.50;;;15.70;93.40;;;;;;5044592;28;20029;-74
2022/12/31 08:48:44;;;;;;;0.95;0.22;;;15.80;93.00;;;;;;5133926;28;20022;-74
2022/12/31 08:51:22;;;;;;;0.52;0.30;;;15.80;92.70;;;;;;5132795;28;20032;-75
2022/12/31 08:53:48;;;;;;;0.98;0.47;;;15.90;92.50;;;;;;5132853;28;20058;-75
2022/12/31 08:56:42;;;;;;;2.13;0.65;;;15.90;92.10;;;;;;5132709;28;20023;-74
2022/12/31 08:59:34;;;;;;;1.42;0.40;;;15.90;91.90;;;;;;5132710;28;20031;-74
2022/12/31 09:02:17;;;;;;;0.65;0.20;;;16.00;91.80;;;;;;5133920;28;20044;-75
2022/12/31 09:05:10;;;;;;;1.58;0.45;;;16.00;92.10;;;;;;5132727;28;20091;-74
2022/12/31 09:07:45;;;;;;;0.68;0.40;;;15.90;93.20;;;;;;5133662;28;20024;-75
2022/12/31 09:10:27;;;;;;;1.45;0.30;;;15.80;93.60;;;;;;5133812;28;20041;-75
2022/12/31 09:13:17;;;;;;;2.03;0.40;;;15.70;93.20;;;;;;5132656;28;20028;-75
2022/12/31 09:16:26;;;;;;;1.85;0.50;;;15.70;92.90;;;;;;5132628;28;20020;-76
2022/12/31 09:18:51;;;;;;;1.80;0.40;;;15.80;92.50;;;;;;5132855;28;20020;-74
2022/12/31 09:21:17;;;;;;;0.63;0.20;;;15.80;92.50;;;;;;5116410;28;20070;-74
2022/12/31 09:23:43;;;;;;;3.97;0.95;;;15.90;92.30;;;;;;5136264;28;20048;-74
2022/12/31 09:26:18;;;;;;;2.28;0.60;;;15.90;92.20;;;;;;5119412;28;20020;-74
2022/12/31 09:29:07;;;;;;;1.95;0.20;;;15.90;92.10;;;;;;5137397;28;20035;-74
2022/12/31 09:31:48;;;;;;;1.60;0.35;;;16.00;92.00;;;;;;5137403;28;20047;-74
2022/12/31 09:34:16;;;;;;;1.77;0.17;;;15.90;92.30;;;;;;5136352;28;20023;-74
2022/12/31 09:36:58;;;;;;;3.45;0.80;;;15.90;92.20;;;;;;5136310;28;20535;-74
2022/12/31 09:39:40;;;;;;;2.10;0.70;;;15.90;92.50;;;;;;5137274;28;20020;-74
2022/12/31 09:42:25;;;;;;;;;;;15.90;92.70;;;;;;5137579;27;20023;-75
2022/12/31 09:45:12;;;;;;;3.70;0.63;;;15.80;93.80;;;;;;5137103;28;19904;-74
2022/12/31 09:48:15;;;;;;;1.17;0.50;;;15.60;95.00;;;;;;5135978;28;20568;-74
2022/12/31 09:51:24;;;;;;;0.73;0.35;;;15.40;95.70;;;;;;5137101;28;20050;-74
2022/12/31 09:53:59;;;;;;;2.15;0.80;;;15.30;96.30;;;;;;5088998;28;20095;-74
2022/12/31 09:56:30;;;;;;;5.50;1.20;;;15.30;96.50;;;;;;5135847;28;20035;-74
2022/12/31 09:59:01;;;;;;;3.28;0.90;;;15.30;96.80;;;;;;5135823;28;20015;-74
2022/12/31 10:01:54;;;;;;;2.85;0.80;;;15.20;96.90;;;;;;5136788;28;20030;-74
2022/12/31 10:04:41;;;;;;;2.83;0.57;;;15.20;96.90;;;;;;5136685;28;20031;-74
2022/12/31 10:07:35;;;;;;;0.85;0.57;;;15.20;96.90;;;;;;5136798;28;20039;-74
2022/12/31 10:10:29;;;;;;;1.08;0.80;;;15.20;96.60;;;;;;5106723;28;20047;-74
2022/12/31 10:13:07;;;;;;;3.08;0.45;;;15.30;96.70;;;;;;5135531;28;20031;-74
2022/12/31 10:15:51;;;;;;;1.08;0.63;;;15.30;96.40;;;;;;5136428;28;20028;-74
2022/12/31 10:18:37;;;;;;;3.67;0.82;;;15.30;96.40;;;;;;5136333;28;20031;-73
2022/12/31 10:21:24;;;;;;;0.88;0.70;;;15.40;96.00;;;;;;5135375;28;20027;-74
2022/12/31 10:24:04;;;;;;;1.92;0.70;;;15.40;95.90;;;;;;5136191;28;20044;-74
2022/12/31 10:26:32;;;;;;;3.10;1.00;;;15.40;95.40;;;;;;5136270;28;20053;-73
2022/12/31 10:29:20;;;;;;;5.03;0.93;;;15.50;95.30;;;;;;5135118;28;20032;-74
2022/12/31 10:32:01;;;;;;;1.77;0.50;;;15.50;95.00;;;;;;5135341;28;20054;-74
2022/12/31 10:34:38;;;;;;;1.45;0.70;;;15.50;94.60;;;;;;5135156;28;20034;-74
2022/12/31 10:37:20;;;;;;;2.83;0.70;;;15.60;94.60;;;;;;5134973;28;20027;-74
2022/12/31 10:39:46;;;;;;;;;;;15.60;94.40;;;;;;5135514;28;20046;-75
2022/12/31 10:42:42;;;;;;;1.65;0.68;;;15.70;94.10;;;;;;5135007;28;19903;-74
2022/12/31 10:45:26;;;;;;;1.85;0.50;;;15.70;94.20;;;;;;5135891;28;20043;-74
2022/12/31 10:48:39;;;;;;;1.60;0.77;;;15.80;94.00;;;;;;5134817;28;20116;-74
2022/12/31 10:51:20;;;;;;;2.00;0.65;;;15.80;93.50;;;;;;5053298;28;20036;-75
2022/12/31 10:54:00;;;;;;;1.65;0.80;;;15.90;93.30;;;;;;5132762;28;20031;-76
2022/12/31 10:56:38;;;;;;;2.60;0.70;;;15.90;93.00;;;;;;5134734;28;20028;-74
2022/12/31 10:59:22;;;;;;;2.67;0.70;;;15.90;93.00;;;;;;5135594;28;20106;-75
2022/12/31 11:02:12;;;;;;;4.30;0.73;;;15.90;92.80;;;;;;5134646;28;20032;-73
2022/12/31 11:05:15;;;;;;;1.30;0.50;;;16.00;92.60;;;;;;5134622;28;20110;-73
2022/12/31 11:07:54;;;;;;;2.10;0.57;;;16.00;92.30;;;;;;5135262;28;20038;-73
2022/12/31 11:10:47;;;;;;;2.30;0.60;;;16.00;91.80;;;;;;5135492;28;20028;-72
2022/12/31 11:13:44;;;;;;;2.40;0.70;;;16.10;91.90;;;;;;5134394;28;20061;-75
2022/12/31 11:16:28;;;;;;;1.38;0.43;;;16.20;91.40;;;;;;5134197;28;20119;-74
2022/12/31 11:19:36;;;;;;;2.25;0.50;;;16.20;91.10;;;;;;5134176;28;20027;-73
2022/12/31 11:22:15;;;;;;;4.47;0.70;;;16.20;90.80;;;;;;5099933;28;20064;-73
2022/12/31 11:24:51;;;;;;;5.05;1.02;;;16.30;91.00;;;;;;5134108;28;20031;-73
2022/12/31 11:27:46;;;;;;;0.47;0.20;;;16.30;90.80;;;;;;5135113;28;20045;-73
2022/12/31 11:30:26;;;;;;;1.60;0.60;;;16.30;90.50;;;;;;5135061;28;20024;-73
2022/12/31 11:33:16;;;;;;;7.63;3.53;;;16.40;90.50;;;;;;5135033;28;20027;-73
2022/12/31 11:36:22;;;;;;;3.47;0.60;;;16.40;90.40;;;;;;5135077;28;20379;-73
2022/12/31 11:38:57;;;;;;;6.78;1.90;;;16.40;90.30;;;;;;5133955;28;20034;-73
2022/12/31 11:41:45;;;;;;;5.53;1.05;;;16.40;90.20;;;;;;5133803;28;20045;-72
2022/12/31 11:44:22;;;;;;;2.38;0.70;;;16.50;90.20;;;;;;5134672;28;20026;-74
2022/12/31 11:47:15;;;;;;;2.90;0.93;;;16.50;89.30;;;;;;5133695;28;20027;-74
2022/12/31 11:49:59;;;;;;;;;;;16.50;89.20;;;;;;5134137;28;20023;-74
2022/12/31 11:53:12;;;;;;;3.10;1.23;;;16.50;88.60;;;;;;5134617;28;19925;-73
2022/12/31 11:55:42;;;;;;;4.63;0.93;;;16.50;88.60;;;;;;5078201;28;20447;-73
2022/12/31 11:58:13;;;;;;;2.22;0.80;;;16.50;88.20;;;;;;5133373;28;20028;-73
2022/12/31 12:00:45;;;;;;;3.58;1.08;;;16.50;88.70;;;;;;5134475;28;20108;-73
2022/12/31 12:03:11;;;;;;;2.22;0.90;;;16.50;88.70;;;;;;5134623;28;20027;-74
2022/12/31 12:05:39;;;;;;;4.28;1.02;;;16.50;88.50;;;;;;5116366;28;20028;-74
2022/12/31 12:08:05;;;;;;;1.95;0.57;;;16.60;88.80;;;;;;5134277;28;20024;-73
2022/12/31 12:10:40;;;;;;;3.38;0.70;;;16.60;87.90;;;;;;5134337;28;20031;-74
2022/12/31 12:13:25;;;;;;;5.60;1.40;;;16.60;87.80;;;;;;5133283;28;20028;-74
2022/12/31 12:15:57;;;;;;;3.78;0.70;;;16.60;88.30;;;;;;5133256;28;20026;-73
2022/12/31 12:18:39;;;;;;;3.30;1.00;;;16.50;88.70;;;;;;5134160;28;20027;-73
2022/12/31 12:21:21;;;;;;;5.47;0.70;;;16.50;89.00;;;;;;5133281;28;20022;-73
2022/12/31 12:23:59;;;;;;;3.30;0.80;;;16.50;89.10;;;;;;5134017;28;20047;-74
2022/12/31 12:26:36;;;;;;;4.15;0.70;;;16.40;89.50;;;;;;5132866;28;20280;-73
2022/12/31 12:29:10;;;;;;;2.45;0.80;;;16.40;89.90;;;;;;5134090;28;20040;-73
2022/12/31 12:31:36;;;;;;;3.35;0.65;;;16.40;90.40;;;;;;5134177;28;20012;-73
2022/12/31 12:34:03;;;;;;;2.63;0.90;;;16.40;90.00;;;;;;5133146;28;20012;-74
2022/12/31 12:36:28;;;;;;;3.78;0.93;;;16.40;89.70;;;;;;5133897;28;20016;-73
2022/12/31 12:39:05;;;;;;;1.63;0.80;;;16.40;89.80;;;;;;5132983;28;20022;-74
2022/12/31 12:41:31;;;;;;;2.97;0.98;;;16.40;90.30;;;;;;5115347;28;20040;-74
2022/12/31 12:44:05;;;;;;;4.10;1.00;;;16.30;90.50;;;;;;5115891;28;20016;-75
2022/12/31 12:46:47;;;;;;;5.95;1.00;;;16.20;90.60;;;;;;5134031;28;20028;-75
2022/12/31 12:49:26;;;;;;;4.13;0.65;;;16.30;90.60;;;;;;5132907;28;20020;-73
2022/12/31 12:52:25;;;;;;;5.60;1.20;;;16.20;90.90;;;;;;5133853;28;20023;-75
2022/12/31 12:55:19;;;;;;;2.38;0.90;;;16.20;91.30;;;;;;5132856;28;20119;-75
2022/12/31 12:58:20;;;;;;;2.70;0.90;;;16.20;91.30;;;;;;5137072;28;20038;-75
2022/12/31 13:00:49;;;;;;;5.97;1.13;;;16.10;91.40;;;;;;5112356;28;20051;-73
2022/12/31 13:03:33;;;;;;;5.32;1.30;;;16.10;91.20;;;;;;5136975;28;20092;-73
2022/12/31 13:06:25;;;;;;;3.47;1.33;;;16.10;91.00;;;;;;5137875;28;20015;-73
2022/12/31 13:09:24;;;;;;;2.45;1.25;;;16.10;90.80;;;;;;5085318;28;20095;-73
2022/12/31 13:12:14;;;;;;;2.13;0.73;;;16.20;90.80;;;;;;5137766;28;20483;-74
2022/12/31 13:15:19;;;;;;;3.95;1.55;;;16.20;90.60;;;;;;5137817;28;20016;-74
2022/12/31 13:18:02;;;;;;;1.52;0.60;;;16.20;90.50;;;;;;5137752;28;20019;-74
2022/12/31 13:20:38;;;;;;;7.15;2.42;;;16.30;90.20;;;;;;5137755;28;20027;-74
2022/12/31 13:23:29;;;;;;;4.30;1.13;;;16.30;89.40;;;;;;5137418;28;20048;-74
2022/12/31 13:26:19;;;;;;;7.88;1.00;;;16.40;89.10;;;;;;5136331;28;20027;-75
2022/12/31 13:28:47;;;;;;;1.73;0.60;;;16.30;88.60;;;;;;5136419;28;20023;-74
2022/12/31 13:31:16;;;;;;;3.70;0.80;;;16.40;88.30;;;;;;5137363;28;20035;-74
2022/12/31 13:33:48;;;;;;;2.65;1.30;;;16.40;88.30;;;;;;5137336;28;20035;-74
2022/12/31 13:36:17;;;;;;;4.82;1.10;;;16.40;88.50;;;;;;5136373;28;20466;-74